sensor_id;sensor_type;location;lat;lon;timestamp;pressure;altitude;pressure_sealevel;temperature;humidity
48555;BME280;34336;48.270;16.716;2023-04-25T00:02:01;109325.25;;;18.16;74.19
48555;BME280;34336;48.270;16.716;2023-04-25T00:04:27;109325.25;;;18.16;74.53
48555;BME280;34336;48.270;16.716;2023-04-25T00:06:56;109325.25;;;18.16;75.01
48555;BME280;34336;48.270;16.716;2023-04-25T00:09:23;109325.25;;;18.16;75.32
48555;BME280;34336;48.270;16.716;2023-04-25T00:11:50;109325.25;;;18.16;74.72
48555;BME280;34336;48.270;16.716;2023-04-25T00:14:16;109325.25;;;18.16;74.54
48555;BME280;34336;48.270;16.716;2023-04-25T00:16:43;109325.25;;;18.16;74.22
48555;BME280;34336;48.270;16.716;2023-04-25T00:19:10;109325.25;;;18.16;74.36
48555;BME280;34336;48.270;16.716;2023-04-25T00:21:37;109325.25;;;18.16;74.23
48555;BME280;34336;48.270;16.716;2023-04-25T00:24:07;109325.25;;;18.16;74.78
48555;BME280;34336;48.270;16.716;2023-04-25T00:26:34;109325.25;;;18.16;74.27
48555;BME280;34336;48.270;16.716;2023-04-25T00:29:01;109325.25;;;18.16;73.85
48555;BME280;34336;48.270;16.716;2023-04-25T00:31:28;109325.25;;;18.16;73.17
48555;BME280;34336;48.270;16.716;2023-04-25T00:33:55;109325.25;;;18.16;73.36
48555;BME280;34336;48.270;16.716;2023-04-25T00:36:22;109325.25;;;18.16;73.28
48555;BME280;34336;48.270;16.716;2023-04-25T00:38:48;109325.25;;;18.16;72.57
48555;BME280;34336;48.270;16.716;2023-04-25T00:41:15;109325.25;;;18.16;73.00
48555;BME280;34336;48.270;16.716;2023-04-25T00:43:42;109325.25;;;18.16;72.51
48555;BME280;34336;48.270;16.716;2023-04-25T00:46:19;109325.25;;;18.16;72.42
48555;BME280;34336;48.270;16.716;2023-04-25T00:48:46;109325.25;;;18.16;72.98
48555;BME280;34336;48.270;16.716;2023-04-25T00:51:16;109325.25;;;18.16;71.91
48555;BME280;34336;48.270;16.716;2023-04-25T00:53:45;109325.25;;;18.16;72.48
48555;BME280;34336;48.270;16.716;2023-04-25T00:56:12;109325.25;;;18.16;71.84
48555;BME280;34336;48.270;16.716;2023-04-25T00:58:39;109325.25;;;18.16;71.49
48555;BME280;34336;48.270;16.716;2023-04-25T01:01:06;109325.25;;;18.16;71.64
48555;BME280;34336;48.270;16.716;2023-04-25T01:03:33;109325.25;;;18.16;71.48
48555;BME280;34336;48.270;16.716;2023-04-25T01:06:02;109325.25;;;18.16;70.75
48555;BME280;34336;48.270;16.716;2023-04-25T01:08:29;109325.25;;;18.16;70.57
48555;BME280;34336;48.270;16.716;2023-04-25T01:10:56;109325.25;;;18.16;70.50
48555;BME280;34336;48.270;16.716;2023-04-25T01:13:23;109325.25;;;18.16;70.27
48555;BME280;34336;48.270;16.716;2023-04-25T01:15:49;109325.25;;;18.16;70.71
48555;BME280;34336;48.270;16.716;2023-04-25T01:18:16;109325.25;;;18.16;70.09
48555;BME280;34336;48.270;16.716;2023-04-25T01:20:45;109325.25;;;18.16;69.06
48555;BME280;34336;48.270;16.716;2023-04-25T01:23:12;109325.25;;;18.16;68.97
48555;BME280;34336;48.270;16.716;2023-04-25T01:25:38;109325.25;;;18.16;69.79
48555;BME280;34336;48.270;16.716;2023-04-25T01:28:05;109325.25;;;18.16;68.81
48555;BME280;34336;48.270;16.716;2023-04-25T01:30:32;109325.25;;;18.16;68.76
48555;BME280;34336;48.270;16.716;2023-04-25T01:32:59;109325.25;;;18.16;69.10
48555;BME280;34336;48.270;16.716;2023-04-25T01:35:27;109325.25;;;18.16;69.00
48555;BME280;34336;48.270;16.716;2023-04-25T01:37:54;109325.25;;;18.16;68.55
48555;BME280;34336;48.270;16.716;2023-04-25T01:40:21;109325.25;;;18.16;68.95
48555;BME280;34336;48.270;16.716;2023-04-25T01:42:49;109325.25;;;18.16;69.30
48555;BME280;34336;48.270;16.716;2023-04-25T01:45:16;109325.25;;;18.16;69.61
48555;BME280;34336;48.270;16.716;2023-04-25T01:47:44;109325.25;;;18.16;69.72
48555;BME280;34336;48.270;16.716;2023-04-25T01:50:16;109325.25;;;18.16;69.89
48555;BME280;34336;48.270;16.716;2023-04-25T01:52:44;109325.25;;;18.16;70.27
48555;BME280;34336;48.270;16.716;2023-04-25T01:55:11;109325.25;;;18.16;70.11
48555;BME280;34336;48.270;16.716;2023-04-25T01:57:44;109325.25;;;18.16;69.78
48555;BME280;34336;48.270;16.716;2023-04-25T02:00:11;109325.25;;;18.16;69.76
48555;BME280;34336;48.270;16.716;2023-04-25T02:02:37;109325.25;;;18.16;69.87
48555;BME280;34336;48.270;16.716;2023-04-25T02:05:09;109325.25;;;18.16;69.56
48555;BME280;34336;48.270;16.716;2023-04-25T02:07:38;109325.25;;;18.16;69.69
48555;BME280;34336;48.270;16.716;2023-04-25T02:10:05;109325.25;;;18.16;69.95
48555;BME280;34336;48.270;16.716;2023-04-25T02:12:37;109325.25;;;18.16;69.84
48555;BME280;34336;48.270;16.716;2023-04-25T02:15:24;109325.25;;;18.16;69.82
48555;BME280;34336;48.270;16.716;2023-04-25T02:17:55;109325.25;;;18.16;69.61
48555;BME280;34336;48.270;16.716;2023-04-25T02:20:22;109325.25;;;18.16;69.32
48555;BME280;34336;48.270;16.716;2023-04-25T02:22:49;109325.25;;;18.16;69.94
48555;BME280;34336;48.270;16.716;2023-04-25T02:25:16;109325.25;;;18.16;69.15
48555;BME280;34336;48.270;16.716;2023-04-25T02:27:43;109325.25;;;18.16;69.34
48555;BME280;34336;48.270;16.716;2023-04-25T02:30:10;109325.25;;;18.16;69.29
48555;BME280;34336;48.270;16.716;2023-04-25T02:32:36;109325.25;;;18.16;68.58
48555;BME280;34336;48.270;16.716;2023-04-25T02:35:03;109325.25;;;18.16;68.54
48555;BME280;34336;48.270;16.716;2023-04-25T02:37:31;109325.25;;;18.16;68.68
48555;BME280;34336;48.270;16.716;2023-04-25T02:39:57;109325.25;;;18.16;68.57
48555;BME280;34336;48.270;16.716;2023-04-25T02:42:24;109325.25;;;18.16;68.97
48555;BME280;34336;48.270;16.716;2023-04-25T02:44:51;109325.25;;;18.16;68.55
48555;BME280;34336;48.270;16.716;2023-04-25T02:47:17;109325.25;;;18.16;68.61
48555;BME280;34336;48.270;16.716;2023-04-25T02:49:45;109325.25;;;18.16;68.80
48555;BME280;34336;48.270;16.716;2023-04-25T02:52:12;109325.25;;;18.16;68.59
48555;BME280;34336;48.270;16.716;2023-04-25T02:54:42;109325.25;;;18.16;68.24
48555;BME280;34336;48.270;16.716;2023-04-25T02:57:08;109325.25;;;18.16;67.88
48555;BME280;34336;48.270;16.716;2023-04-25T02:59:36;109325.25;;;18.16;68.08
48555;BME280;34336;48.270;16.716;2023-04-25T03:02:03;109325.25;;;18.16;68.29
48555;BME280;34336;48.270;16.716;2023-04-25T03:04:29;109325.25;;;18.16;68.16
48555;BME280;34336;48.270;16.716;2023-04-25T03:06:56;109325.25;;;18.16;68.45
48555;BME280;34336;48.270;16.716;2023-04-25T03:09:23;109325.25;;;18.16;68.37
48555;BME280;34336;48.270;16.716;2023-04-25T03:11:50;109325.25;;;18.16;67.98
48555;BME280;34336;48.270;16.716;2023-04-25T03:14:18;109325.25;;;18.16;67.90
48555;BME280;34336;48.270;16.716;2023-04-25T03:16:45;109325.25;;;18.16;67.68
48555;BME280;34336;48.270;16.716;2023-04-25T03:19:12;109325.25;;;18.16;67.73
48555;BME280;34336;48.270;16.716;2023-04-25T03:21:38;109325.25;;;18.16;68.21
48555;BME280;34336;48.270;16.716;2023-04-25T03:24:05;109325.25;;;18.16;68.08
48555;BME280;34336;48.270;16.716;2023-04-25T03:26:31;109325.25;;;18.16;68.19
48555;BME280;34336;48.270;16.716;2023-04-25T03:28:58;109325.25;;;18.16;68.63
48555;BME280;34336;48.270;16.716;2023-04-25T03:31:25;109325.25;;;18.16;68.79
48555;BME280;34336;48.270;16.716;2023-04-25T03:33:52;109325.25;;;18.16;69.26
48555;BME280;34336;48.270;16.716;2023-04-25T03:36:21;109325.25;;;18.16;68.66
48555;BME280;34336;48.270;16.716;2023-04-25T03:38:47;109325.25;;;18.16;68.92
48555;BME280;34336;48.270;16.716;2023-04-25T03:41:16;109325.25;;;18.16;68.80
48555;BME280;34336;48.270;16.716;2023-04-25T03:43:46;109325.25;;;18.16;69.08
48555;BME280;34336;48.270;16.716;2023-04-25T03:46:14;109325.25;;;18.16;69.17
48555;BME280;34336;48.270;16.716;2023-04-25T03:48:41;109325.25;;;18.16;68.92
48555;BME280;34336;48.270;16.716;2023-04-25T03:51:12;109325.25;;;18.16;68.76
48555;BME280;34336;48.270;16.716;2023-04-25T03:53:41;109325.25;;;18.16;69.51
48555;BME280;34336;48.270;16.716;2023-04-25T03:56:14;109325.25;;;18.16;69.21
48555;BME280;34336;48.270;16.716;2023-04-25T03:58:43;109325.25;;;18.16;69.34
48555;BME280;34336;48.270;16.716;2023-04-25T04:01:11;109325.25;;;18.16;69.24
48555;BME280;34336;48.270;16.716;2023-04-25T04:03:39;109325.25;;;18.16;69.37
48555;BME280;34336;48.270;16.716;2023-04-25T04:06:06;109325.25;;;18.16;68.83
48555;BME280;34336;48.270;16.716;2023-04-25T04:08:37;109325.25;;;18.16;69.41
48555;BME280;34336;48.270;16.716;2023-04-25T04:11:04;109325.25;;;18.16;69.41
48555;BME280;34336;48.270;16.716;2023-04-25T04:13:31;109325.25;;;18.16;69.00
48555;BME280;34336;48.270;16.716;2023-04-25T04:15:59;109325.25;;;18.16;69.17
48555;BME280;34336;48.270;16.716;2023-04-25T04:18:26;109325.25;;;18.16;69.71
48555;BME280;34336;48.270;16.716;2023-04-25T04:20:54;109325.25;;;18.16;69.42
48555;BME280;34336;48.270;16.716;2023-04-25T04:23:21;109325.25;;;18.16;69.42
48555;BME280;34336;48.270;16.716;2023-04-25T04:25:49;109325.25;;;18.16;69.89
48555;BME280;34336;48.270;16.716;2023-04-25T04:28:34;109325.25;;;18.16;70.58
48555;BME280;34336;48.270;16.716;2023-04-25T04:31:13;109325.25;;;18.16;71.38
48555;BME280;34336;48.270;16.716;2023-04-25T04:33:43;109325.25;;;18.16;71.64
48555;BME280;34336;48.270;16.716;2023-04-25T04:36:11;109325.25;;;18.16;71.78
48555;BME280;34336;48.270;16.716;2023-04-25T04:38:38;109325.25;;;18.16;71.35
48555;BME280;34336;48.270;16.716;2023-04-25T04:41:08;109325.25;;;18.16;72.22
48555;BME280;34336;48.270;16.716;2023-04-25T04:43:52;109325.25;;;18.16;72.03
48555;BME280;34336;48.270;16.716;2023-04-25T04:46:36;109325.25;;;18.16;72.08
48555;BME280;34336;48.270;16.716;2023-04-25T04:49:29;109325.25;;;18.16;71.85
48555;BME280;34336;48.270;16.716;2023-04-25T04:52:18;109325.25;;;18.16;71.42
48555;BME280;34336;48.270;16.716;2023-04-25T04:54:54;109325.25;;;18.16;71.54
48555;BME280;34336;48.270;16.716;2023-04-25T04:57:32;109325.25;;;18.16;71.89
48555;BME280;34336;48.270;16.716;2023-04-25T05:00:17;109325.25;;;18.16;71.88
48555;BME280;34336;48.270;16.716;2023-04-25T05:03:00;109325.25;;;18.16;71.20
48555;BME280;34336;48.270;16.716;2023-04-25T05:05:46;109325.25;;;18.16;71.46
48555;BME280;34336;48.270;16.716;2023-04-25T05:08:38;109325.25;;;18.16;71.01
48555;BME280;34336;48.270;16.716;2023-04-25T05:11:14;109325.25;;;18.16;70.99
48555;BME280;34336;48.270;16.716;2023-04-25T05:13:53;109325.25;;;18.16;71.18
48555;BME280;34336;48.270;16.716;2023-04-25T05:16:42;109325.25;;;18.16;71.06
48555;BME280;34336;48.270;16.716;2023-04-25T05:19:35;109325.25;;;18.16;70.27
48555;BME280;34336;48.270;16.716;2023-04-25T05:22:15;109325.25;;;18.16;70.07
48555;BME280;34336;48.270;16.716;2023-04-25T05:25:01;109325.25;;;18.16;69.96
48555;BME280;34336;48.270;16.716;2023-04-25T05:27:46;109325.25;;;18.16;69.50
48555;BME280;34336;48.270;16.716;2023-04-25T05:30:28;109325.25;;;18.16;69.27
48555;BME280;34336;48.270;16.716;2023-04-25T05:33:02;109325.25;;;18.16;68.87
48555;BME280;34336;48.270;16.716;2023-04-25T05:35:29;109325.25;;;18.16;67.71
48555;BME280;34336;48.270;16.716;2023-04-25T05:37:55;109325.25;;;18.16;67.54
48555;BME280;34336;48.270;16.716;2023-04-25T05:40:35;109325.25;;;18.16;66.94
48555;BME280;34336;48.270;16.716;2023-04-25T05:43:11;109325.25;;;18.16;66.44
48555;BME280;34336;48.270;16.716;2023-04-25T05:45:46;109325.25;;;18.16;65.22
48555;BME280;34336;48.270;16.716;2023-04-25T05:48:29;109325.25;;;18.16;63.32
48555;BME280;34336;48.270;16.716;2023-04-25T05:51:00;109325.25;;;18.16;61.96
48555;BME280;34336;48.270;16.716;2023-04-25T05:53:53;109325.25;;;18.16;60.75
48555;BME280;34336;48.270;16.716;2023-04-25T05:56:20;109325.25;;;18.16;60.23
48555;BME280;34336;48.270;16.716;2023-04-25T05:58:50;109325.25;;;18.16;60.18
48555;BME280;34336;48.270;16.716;2023-04-25T06:01:17;109325.25;;;18.16;60.13
48555;BME280;34336;48.270;16.716;2023-04-25T06:03:43;109325.25;;;18.16;60.68
48555;BME280;34336;48.270;16.716;2023-04-25T06:06:11;109325.25;;;18.16;61.34
48555;BME280;34336;48.270;16.716;2023-04-25T06:08:38;109325.25;;;18.16;61.31
48555;BME280;34336;48.270;16.716;2023-04-25T06:11:05;109325.25;;;18.16;60.77
48555;BME280;34336;48.270;16.716;2023-04-25T06:13:32;109325.25;;;18.16;61.39
48555;BME280;34336;48.270;16.716;2023-04-25T06:15:59;109325.25;;;18.16;60.79
48555;BME280;34336;48.270;16.716;2023-04-25T06:18:26;109325.25;;;18.16;61.05
48555;BME280;34336;48.270;16.716;2023-04-25T06:20:53;109325.25;;;18.16;60.55
48555;BME280;34336;48.270;16.716;2023-04-25T06:23:22;109325.25;;;18.16;60.94
48555;BME280;34336;48.270;16.716;2023-04-25T06:25:52;109325.25;;;18.16;60.64
48555;BME280;34336;48.270;16.716;2023-04-25T06:28:20;109325.25;;;18.16;60.74
48555;BME280;34336;48.270;16.716;2023-04-25T06:30:48;109325.25;;;18.16;61.56
48555;BME280;34336;48.270;16.716;2023-04-25T06:33:17;109325.25;;;18.16;60.88
48555;BME280;34336;48.270;16.716;2023-04-25T06:35:44;109325.25;;;18.16;58.12
48555;BME280;34336;48.270;16.716;2023-04-25T06:38:14;109325.25;;;18.16;53.39
48555;BME280;34336;48.270;16.716;2023-04-25T06:40:45;109325.25;;;18.16;50.42
48555;BME280;34336;48.270;16.716;2023-04-25T06:43:12;109325.25;;;18.16;48.23
48555;BME280;34336;48.270;16.716;2023-04-25T06:45:54;109325.25;;;18.16;44.94
48555;BME280;34336;48.270;16.716;2023-04-25T06:48:22;109325.25;;;18.16;44.95
48555;BME280;34336;48.270;16.716;2023-04-25T06:50:49;109325.25;;;18.16;43.69
48555;BME280;34336;48.270;16.716;2023-04-25T06:53:17;109325.25;;;18.16;45.79
48555;BME280;34336;48.270;16.716;2023-04-25T06:55:46;109325.25;;;18.16;43.20
48555;BME280;34336;48.270;16.716;2023-04-25T06:58:17;109325.25;;;18.16;42.59
48555;BME280;34336;48.270;16.716;2023-04-25T07:00:56;109325.25;;;18.16;42.64
48555;BME280;34336;48.270;16.716;2023-04-25T07:03:24;109325.25;;;18.16;41.98
48555;BME280;34336;48.270;16.716;2023-04-25T07:05:56;109325.25;;;18.16;40.40
48555;BME280;34336;48.270;16.716;2023-04-25T07:08:23;109325.25;;;18.16;40.66
48555;BME280;34336;48.270;16.716;2023-04-25T07:10:50;109325.25;;;18.16;41.79
48555;BME280;34336;48.270;16.716;2023-04-25T07:13:17;109325.25;;;18.16;40.45
48555;BME280;34336;48.270;16.716;2023-04-25T07:15:44;109325.25;;;18.16;39.36
48555;BME280;34336;48.270;16.716;2023-04-25T07:18:11;109325.25;;;18.16;40.90
48555;BME280;34336;48.270;16.716;2023-04-25T07:20:38;109325.25;;;18.16;42.17
48555;BME280;34336;48.270;16.716;2023-04-25T07:23:05;109325.25;;;18.16;43.59
48555;BME280;34336;48.270;16.716;2023-04-25T07:25:32;109325.25;;;18.16;42.05
48555;BME280;34336;48.270;16.716;2023-04-25T07:28:00;109325.25;;;18.16;41.30
48555;BME280;34336;48.270;16.716;2023-04-25T07:30:26;109325.25;;;18.16;40.52
48555;BME280;34336;48.270;16.716;2023-04-25T07:32:54;109325.25;;;18.16;40.56
48555;BME280;34336;48.270;16.716;2023-04-25T07:35:20;109325.25;;;18.16;40.88
48555;BME280;34336;48.270;16.716;2023-04-25T07:37:47;109325.25;;;18.16;41.07
48555;BME280;34336;48.270;16.716;2023-04-25T07:40:17;109325.25;;;18.16;41.05
48555;BME280;34336;48.270;16.716;2023-04-25T07:42:51;109325.25;;;18.16;40.54
48555;BME280;34336;48.270;16.716;2023-04-25T07:45:25;109325.25;;;18.16;40.55
48555;BME280;34336;48.270;16.716;2023-04-25T07:47:52;109325.25;;;18.16;41.00
48555;BME280;34336;48.270;16.716;2023-04-25T07:50:20;109325.25;;;18.16;41.95
48555;BME280;34336;48.270;16.716;2023-04-25T07:52:47;109325.25;;;18.16;41.24
48555;BME280;34336;48.270;16.716;2023-04-25T07:55:23;109325.25;;;18.16;41.53
48555;BME280;34336;48.270;16.716;2023-04-25T07:57:59;109325.25;;;18.16;40.80
48555;BME280;34336;48.270;16.716;2023-04-25T08:00:28;109325.25;;;18.16;39.02
48555;BME280;34336;48.270;16.716;2023-04-25T08:03:14;109325.25;;;18.16;41.19
48555;BME280;34336;48.270;16.716;2023-04-25T08:05:41;109325.25;;;18.16;42.42
48555;BME280;34336;48.270;16.716;2023-04-25T08:08:08;109325.25;;;18.16;41.30
48555;BME280;34336;48.270;16.716;2023-04-25T08:10:38;109325.25;;;18.16;41.05
48555;BME280;34336;48.270;16.716;2023-04-25T08:13:04;109325.25;;;18.16;42.06
48555;BME280;34336;48.270;16.716;2023-04-25T08:15:33;109325.25;;;18.16;42.07
48555;BME280;34336;48.270;16.716;2023-04-25T08:18:00;109325.25;;;18.16;42.54
48555;BME280;34336;48.270;16.716;2023-04-25T08:20:27;109325.25;;;18.16;42.04
48555;BME280;34336;48.270;16.716;2023-04-25T08:22:55;109325.25;;;18.16;42.66
48555;BME280;34336;48.270;16.716;2023-04-25T08:25:33;109325.25;;;18.16;43.12
48555;BME280;34336;48.270;16.716;2023-04-25T08:28:00;109325.25;;;18.16;43.56
48555;BME280;34336;48.270;16.716;2023-04-25T08:30:29;109325.25;;;18.16;44.51
48555;BME280;34336;48.270;16.716;2023-04-25T08:32:56;109325.25;;;18.16;45.46
48555;BME280;34336;48.270;16.716;2023-04-25T08:35:44;109325.25;;;18.16;44.26
48555;BME280;34336;48.270;16.716;2023-04-25T08:38:11;109325.25;;;18.16;44.99
48555;BME280;34336;48.270;16.716;2023-04-25T08:40:38;109325.25;;;18.16;45.17
48555;BME280;34336;48.270;16.716;2023-04-25T08:43:12;109325.25;;;18.16;44.25
48555;BME280;34336;48.270;16.716;2023-04-25T08:45:39;109325.25;;;18.16;44.94
48555;BME280;34336;48.270;16.716;2023-04-25T08:48:15;109325.25;;;18.16;43.07
48555;BME280;34336;48.270;16.716;2023-04-25T08:50:45;109325.25;;;18.16;42.73
48555;BME280;34336;48.270;16.716;2023-04-25T08:53:12;109325.25;;;18.16;43.34
48555;BME280;34336;48.270;16.716;2023-04-25T08:55:42;109325.25;;;18.16;42.37
48555;BME280;34336;48.270;16.716;2023-04-25T08:58:09;109325.25;;;18.16;41.91
48555;BME280;34336;48.270;16.716;2023-04-25T09:00:37;109325.25;;;18.16;41.98
48555;BME280;34336;48.270;16.716;2023-04-25T09:03:04;109325.25;;;18.16;43.54
48555;BME280;34336;48.270;16.716;2023-04-25T09:05:33;109325.25;;;18.16;42.73
48555;BME280;34336;48.270;16.716;2023-04-25T09:08:00;109325.25;;;18.16;42.93
48555;BME280;34336;48.270;16.716;2023-04-25T09:10:27;109325.25;;;18.16;43.12
48555;BME280;34336;48.270;16.716;2023-04-25T09:13:02;109325.25;;;18.16;42.50
48555;BME280;34336;48.270;16.716;2023-04-25T09:15:31;109325.25;;;18.16;42.48
48555;BME280;34336;48.270;16.716;2023-04-25T09:18:10;109325.25;;;18.16;43.51
48555;BME280;34336;48.270;16.716;2023-04-25T09:20:42;109325.25;;;18.16;44.25
48555;BME280;34336;48.270;16.716;2023-04-25T09:23:18;109325.25;;;18.16;44.91
48555;BME280;34336;48.270;16.716;2023-04-25T09:25:46;109325.25;;;18.16;46.23
48555;BME280;34336;48.270;16.716;2023-04-25T09:28:13;109325.25;;;18.16;45.15
48555;BME280;34336;48.270;16.716;2023-04-25T09:30:40;109325.25;;;18.16;45.17
48555;BME280;34336;48.270;16.716;2023-04-25T09:33:14;109325.25;;;18.16;44.91
48555;BME280;34336;48.270;16.716;2023-04-25T09:35:45;109325.25;;;18.16;44.22
48555;BME280;34336;48.270;16.716;2023-04-25T09:38:20;109325.25;;;18.16;44.93
48555;BME280;34336;48.270;16.716;2023-04-25T09:40:53;109325.25;;;18.16;45.50
48555;BME280;34336;48.270;16.716;2023-04-25T09:43:32;109325.25;;;18.16;45.26
48555;BME280;34336;48.270;16.716;2023-04-25T09:45:59;109325.25;;;18.16;45.83
48555;BME280;34336;48.270;16.716;2023-04-25T09:48:29;109325.25;;;18.16;46.09
48555;BME280;34336;48.270;16.716;2023-04-25T09:53:32;109325.25;;;18.16;43.69
48555;BME280;34336;48.270;16.716;2023-04-25T09:56:12;109325.25;;;18.16;45.17
48555;BME280;34336;48.270;16.716;2023-04-25T09:58:40;109325.25;;;18.16;43.91
48555;BME280;34336;48.270;16.716;2023-04-25T10:01:09;109325.25;;;18.16;43.96
48555;BME280;34336;48.270;16.716;2023-04-25T10:03:47;109325.25;;;18.16;44.77
48555;BME280;34336;48.270;16.716;2023-04-25T10:06:30;109325.25;;;18.16;45.07
48555;BME280;34336;48.270;16.716;2023-04-25T10:08:59;109325.25;;;18.16;44.57
48555;BME280;34336;48.270;16.716;2023-04-25T10:11:26;109325.25;;;18.16;44.52
48555;BME280;34336;48.270;16.716;2023-04-25T10:13:53;109325.25;;;18.16;43.37
48555;BME280;34336;48.270;16.716;2023-04-25T10:16:20;109325.25;;;18.16;42.35
48555;BME280;34336;48.270;16.716;2023-04-25T10:18:47;109325.25;;;18.16;41.95
48555;BME280;34336;48.270;16.716;2023-04-25T10:21:14;109325.25;;;18.16;41.03
48555;BME280;34336;48.270;16.716;2023-04-25T10:23:42;109325.25;;;18.16;42.91
48555;BME280;34336;48.270;16.716;2023-04-25T10:26:08;109325.25;;;18.16;41.56
48555;BME280;34336;48.270;16.716;2023-04-25T10:28:54;109325.25;;;18.16;42.38
48555;BME280;34336;48.270;16.716;2023-04-25T10:31:21;109325.25;;;18.16;41.37
48555;BME280;34336;48.270;16.716;2023-04-25T10:33:48;109325.25;;;18.16;41.24
48555;BME280;34336;48.270;16.716;2023-04-25T10:36:19;109325.25;;;18.16;41.26
48555;BME280;34336;48.270;16.716;2023-04-25T10:38:47;109325.25;;;18.16;41.82
48555;BME280;34336;48.270;16.716;2023-04-25T10:41:14;109325.25;;;18.16;43.30
48555;BME280;34336;48.270;16.716;2023-04-25T10:43:41;109325.25;;;18.16;45.36
48555;BME280;34336;48.270;16.716;2023-04-25T10:48:57;109325.25;;;18.16;46.44
48555;BME280;34336;48.270;16.716;2023-04-25T10:51:31;109325.25;;;18.16;49.01
48555;BME280;34336;48.270;16.716;2023-04-25T10:54:20;109325.25;;;18.16;50.89
48555;BME280;34336;48.270;16.716;2023-04-25T10:56:48;109325.25;;;18.16;51.81
48555;BME280;34336;48.270;16.716;2023-04-25T10:59:16;109325.25;;;18.16;52.25
48555;BME280;34336;48.270;16.716;2023-04-25T11:01:44;109325.25;;;18.16;51.35
48555;BME280;34336;48.270;16.716;2023-04-25T11:04:24;109325.25;;;18.16;50.95
48555;BME280;34336;48.270;16.716;2023-04-25T11:09:34;109325.25;;;18.16;49.05
48555;BME280;34336;48.270;16.716;2023-04-25T11:12:00;109325.25;;;18.16;47.69
48555;BME280;34336;48.270;16.716;2023-04-25T11:14:27;109325.25;;;18.16;45.89
48555;BME280;34336;48.270;16.716;2023-04-25T11:17:09;109325.25;;;18.16;46.01
48555;BME280;34336;48.270;16.716;2023-04-25T11:19:37;109325.25;;;18.16;44.80
48555;BME280;34336;48.270;16.716;2023-04-25T11:22:04;109325.25;;;18.16;45.32
48555;BME280;34336;48.270;16.716;2023-04-25T11:24:34;109325.25;;;18.16;44.79
48555;BME280;34336;48.270;16.716;2023-04-25T11:27:02;109325.25;;;18.16;44.59
48555;BME280;34336;48.270;16.716;2023-04-25T11:29:29;109325.25;;;18.16;43.70
48555;BME280;34336;48.270;16.716;2023-04-25T11:31:56;109325.25;;;18.16;44.83
48555;BME280;34336;48.270;16.716;2023-04-25T11:34:24;109325.25;;;18.16;44.33
48555;BME280;34336;48.270;16.716;2023-04-25T11:36:51;109325.25;;;18.16;43.42
48555;BME280;34336;48.270;16.716;2023-04-25T11:39:19;109325.25;;;18.16;43.15
48555;BME280;34336;48.270;16.716;2023-04-25T11:41:46;109325.25;;;18.16;42.89
48555;BME280;34336;48.270;16.716;2023-04-25T11:44:17;109325.25;;;18.16;41.03
48555;BME280;34336;48.270;16.716;2023-04-25T11:46:45;109325.25;;;18.16;39.51
48555;BME280;34336;48.270;16.716;2023-04-25T11:49:12;109325.25;;;18.16;40.36
48555;BME280;34336;48.270;16.716;2023-04-25T11:51:39;109325.25;;;18.16;40.47
48555;BME280;34336;48.270;16.716;2023-04-25T11:54:06;109325.25;;;18.16;39.89
48555;BME280;34336;48.270;16.716;2023-04-25T11:56:33;109325.25;;;18.16;41.24
48555;BME280;34336;48.270;16.716;2023-04-25T11:59:00;109325.25;;;18.16;41.27
48555;BME280;34336;48.270;16.716;2023-04-25T12:01:30;109325.25;;;18.16;41.40
48555;BME280;34336;48.270;16.716;2023-04-25T12:04:14;109325.25;;;18.16;41.74
48555;BME280;34336;48.270;16.716;2023-04-25T12:06:41;109325.25;;;18.16;42.40
48555;BME280;34336;48.270;16.716;2023-04-25T12:09:21;109325.25;;;18.16;42.88
48555;BME280;34336;48.270;16.716;2023-04-25T12:11:48;109325.25;;;18.16;42.83
48555;BME280;34336;48.270;16.716;2023-04-25T12:14:28;109325.25;;;18.16;44.22
48555;BME280;34336;48.270;16.716;2023-04-25T12:16:57;109325.25;;;18.16;45.17
48555;BME280;34336;48.270;16.716;2023-04-25T12:19:24;109325.25;;;18.16;44.61
48555;BME280;34336;48.270;16.716;2023-04-25T12:21:52;109325.25;;;18.16;45.65
48555;BME280;34336;48.270;16.716;2023-04-25T12:24:25;109325.25;;;18.16;45.46
48555;BME280;34336;48.270;16.716;2023-04-25T12:27:04;109325.25;;;18.16;46.31
48555;BME280;34336;48.270;16.716;2023-04-25T12:29:31;109325.25;;;18.16;46.10
48555;BME280;34336;48.270;16.716;2023-04-25T12:32:13;109325.25;;;18.16;46.11
48555;BME280;34336;48.270;16.716;2023-04-25T12:34:40;109325.25;;;18.16;46.29
48555;BME280;34336;48.270;16.716;2023-04-25T12:37:06;109325.25;;;18.16;46.08
48555;BME280;34336;48.270;16.716;2023-04-25T12:39:33;109325.25;;;18.16;45.96
48555;BME280;34336;48.270;16.716;2023-04-25T12:41:59;109325.25;;;18.16;46.62
48555;BME280;34336;48.270;16.716;2023-04-25T12:44:27;109325.25;;;18.16;46.76
48555;BME280;34336;48.270;16.716;2023-04-25T12:46:53;109325.25;;;18.16;48.10
48555;BME280;34336;48.270;16.716;2023-04-25T12:49:21;109325.25;;;18.16;46.66
48555;BME280;34336;48.270;16.716;2023-04-25T12:51:48;109325.25;;;18.16;46.83
48555;BME280;34336;48.270;16.716;2023-04-25T12:54:18;109325.25;;;18.16;46.73
48555;BME280;34336;48.270;16.716;2023-04-25T12:56:44;109325.25;;;18.16;46.89
48555;BME280;34336;48.270;16.716;2023-04-25T12:59:12;109325.25;;;18.16;44.36
48555;BME280;34336;48.270;16.716;2023-04-25T13:01:39;109325.25;;;18.16;45.46
48555;BME280;34336;48.270;16.716;2023-04-25T13:04:06;109325.25;;;18.16;43.79